Terminal Aerodrome Forecast
Issued by NWS

Current Version | Previous Version | Text Only | Print | Product List | Glossary On
Versions: 1 2 3 4 5 6 7 8 9 10 11 12 13 14 15 16 17 18
000
FTUS43 KLSX 282300
TAFUIN
TAF
KUIN 282337Z 2900/2924 15008KT P6SM BKN250
     FM290300 18010KT P6SM BKN250 WS017/24045KT
     FM291000 19010KT P6SM BKN015 WS017/24045KT
     FM291500 20011KT P6SM BKN015
     FM291800 20011KT P6SM SCT015=

USA.gov is the U.S. government's official web portal to all federal, state and local government web resources and services.